Time;durP1;ratioP1;P1;durP2;ratioP2;P2;SDS_P1;SDS_P2;PMS_P1;PMS_P2;Temp;Humidity;BMP_temperature;BMP_pressure;BME280_temperature;BME280_humidity;BME280_pressure;Samples;Min_cycle;Max_cycle;Signal;HPM_P1;HPM_P2
2022/09/05 00:01:28;;;;;;;5.78;3.47;;;;;;;;;;5099258;28;20529;-69
2022/09/05 00:04:00;;;;;;;4.47;2.95;;;;;;;;;;5103046;28;20075;-69
2022/09/05 00:06:32;;;;;;;5.30;3.42;;;;;;;;;;5075163;28;20199;-69
2022/09/05 00:09:06;;;;;;;3.80;2.83;;;;;;;;;;5099192;28;20092;-69
2022/09/05 00:11:51;;;;;;;4.75;3.47;;;;;;;;;;5109279;28;20097;-69
2022/09/05 00:14:29;;;;;;;5.55;3.13;;;;;;;;;;5069535;28;20047;-70
2022/09/05 00:17:16;;;;;;;4.90;2.88;;;;;;;;;;5104690;28;20035;-69
2022/09/05 00:19:42;;;;;;;5.03;3.25;;;;;;;;;;5102167;28;20043;-69
2022/09/05 00:22:31;;;;;;;13.00;3.88;;;;;;;;;;5106837;28;20469;-69
2022/09/05 00:25:16;;;;;;;6.43;3.20;;;;;;;;;;5086058;28;20043;-69
2022/09/05 00:28:00;;;;;;;4.90;3.53;;;;;;;;;;5100163;28;20461;-69
2022/09/05 00:30:29;;;;;;;7.60;3.65;;;;;;;;;;5086256;28;20121;-69
2022/09/05 00:33:14;;;;;;;10.18;4.40;;;;;;;;;;5082563;28;20120;-69
2022/09/05 00:35:58;;;;;;;7.22;2.92;;;;;;;;;;5106691;28;20106;-69
2022/09/05 00:38:25;;;;;;;6.30;2.92;;;;;;;;;;5105841;28;20505;-69
2022/09/05 00:40:55;;;;;;;3.92;2.60;;;;;;;;;;5105160;28;20044;-70
2022/09/05 00:43:41;;;;;;;5.97;3.13;;;;;;;;;;5103172;28;20071;-69
2022/09/05 00:46:12;;;;;;;5.78;2.88;;;;;;;;;;5105004;28;20495;-69
2022/09/05 00:48:53;;;;;;;6.10;3.20;;;;;;;;;;5086172;28;20031;-69
2022/09/05 00:51:26;;;;;;;6.78;4.07;;;;;;;;;;5105693;28;20036;-69
2022/09/05 00:53:53;;;;;;;4.55;3.42;;;;;;;;;;5096976;28;20048;-69
2022/09/05 00:56:19;;;;;;;4.70;3.25;;;;;;;;;;5103963;28;20035;-69
2022/09/05 00:59:06;;;;;;;4.32;3.45;;;;;;;;;;5103693;28;20040;-69
2022/09/05 01:01:40;;;;;;;8.68;3.42;;;;;;;;;;5057216;28;20135;-70
2022/09/05 01:04:15;;;;;;;5.53;2.95;;;;;;;;;;5103692;28;20380;-69
2022/09/05 01:07:00;;;;;;;4.70;2.92;;;;;;;;;;5082023;28;20040;-69
2022/09/05 01:09:29;;;;;;;5.07;3.28;;;;;;;;;;5100148;28;20055;-69
2022/09/05 01:11:59;;;;;;;4.05;3.00;;;;;;;;;;5103620;28;20517;-69
2022/09/05 01:14:38;;;;;;;5.80;2.97;;;;;;;;;;5069770;28;20117;-69
2022/09/05 01:17:04;;;;;;;4.60;3.65;;;;;;;;;;5091285;28;20058;-69
2022/09/05 01:19:33;;;;;;;5.55;3.50;;;;;;;;;;5101316;28;20126;-69
2022/09/05 01:21:59;;;;;;;5.20;2.70;;;;;;;;;;5103622;28;20082;-69
2022/09/05 01:24:28;;;;;;;5.65;3.80;;;;;;;;;;5107253;28;20040;-69
2022/09/05 01:27:13;;;;;;;4.40;3.40;;;;;;;;;;5107395;28;20410;-69
2022/09/05 01:29:45;;;;;;;4.38;3.38;;;;;;;;;;5094704;28;20031;-69
2022/09/05 01:32:23;;;;;;;6.97;3.78;;;;;;;;;;5071835;28;20043;-69
2022/09/05 01:35:00;;;;;;;6.63;3.17;;;;;;;;;;5068767;28;20036;-69
2022/09/05 01:37:30;;;;;;;4.55;3.08;;;;;;;;;;5102084;28;20039;-70
2022/09/05 01:39:57;;;;;;;6.72;3.20;;;;;;;;;;5102891;28;20055;-69
2022/09/05 01:42:28;;;;;;;4.20;3.67;;;;;;;;;;5088892;28;20086;-69
2022/09/05 01:44:54;;;;;;;4.30;3.38;;;;;;;;;;5113393;28;20040;-70
2022/09/05 01:47:35;;;;;;;5.22;3.15;;;;;;;;;;5108190;28;20040;-69
2022/09/05 01:50:25;;;;;;;4.97;3.72;;;;;;;;;;5107176;28;20032;-69
2022/09/05 01:53:06;;;;;;;6.88;3.75;;;;;;;;;;5106224;28;20070;-69
2022/09/05 01:55:32;;;;;;;6.63;3.70;;;;;;;;;;5090484;28;20408;-69
2022/09/05 01:58:17;;;;;;;5.55;3.70;;;;;;;;;;5110054;28;20075;-70
2022/09/05 02:00:46;;;;;;;7.85;4.20;;;;;;;;;;5090853;28;20039;-69
2022/09/05 02:03:31;;;;;;;3.85;3.45;;;;;;;;;;5102806;28;20053;-70
2022/09/05 02:06:16;;;;;;;8.27;4.13;;;;;;;;;;5088790;28;20039;-69
2022/09/05 02:08:51;;;;;;;6.88;4.22;;;;;;;;;;5085759;28;20044;-69
2022/09/05 02:11:17;;;;;;;4.45;3.88;;;;;;;;;;5084919;28;20146;-69
2022/09/05 02:14:00;;;;;;;5.60;3.90;;;;;;;;;;5109797;28;20043;-70
2022/09/05 02:16:26;;;;;;;;;;;;;;;;;;5108961;27;20128;-69
2022/09/05 02:18:55;;;;;;;8.00;3.45;;;;;;;;;;5109640;28;19962;-69
2022/09/05 02:21:36;;;;;;;4.10;3.58;;;;;;;;;;5108051;28;20043;-70
2022/09/05 02:24:18;;;;;;;7.03;3.70;;;;;;;;;;5093841;28;20070;-69
2022/09/05 02:27:03;;;;;;;4.53;3.42;;;;;;;;;;5098278;28;20074;-69
2022/09/05 02:29:35;;;;;;;9.18;4.78;;;;;;;;;;5086812;28;20173;-69
2022/09/05 02:32:01;;;;;;;;;;;;;;;;;;5105962;28;20402;-69
2022/09/05 02:34:37;;;;;;;5.35;4.18;;;;;;;;;;5109686;28;20285;-69
2022/09/05 02:37:21;;;;;;;6.25;4.10;;;;;;;;;;5112441;28;20043;-69
2022/09/05 02:40:01;;;;;;;7.82;4.10;;;;;;;;;;5088419;28;20086;-69
2022/09/05 02:42:38;;;;;;;5.90;4.28;;;;;;;;;;5108621;28;20065;-69
2022/09/05 02:45:08;;;;;;;7.53;4.72;;;;;;;;;;5106358;28;20047;-69
2022/09/05 02:47:52;;;;;;;5.95;3.80;;;;;;;;;;5110491;28;20108;-69
2022/09/05 02:50:34;;;;;;;6.63;4.78;;;;;;;;;;5098314;28;20079;-69
2022/09/05 02:53:01;;;;;;;5.85;5.00;;;;;;;;;;5084788;28;20062;-68
2022/09/05 02:55:39;;;;;;;10.65;4.97;;;;;;;;;;5105238;28;20035;-69
2022/09/05 02:58:14;;;;;;;11.35;5.43;;;;;;;;;;5089717;28;20074;-68
2022/09/05 03:00:46;;;;;;;6.47;4.78;;;;;;;;;;5110168;28;20043;-69
2022/09/05 03:03:15;;;;;;;7.10;5.10;;;;;;;;;;5103350;28;20040;-69
2022/09/05 03:05:59;;;;;;;6.35;4.85;;;;;;;;;;5105620;28;20040;-69
2022/09/05 03:08:48;;;;;;;7.43;4.95;;;;;;;;;;5099288;28;20085;-69
2022/09/05 03:11:33;;;;;;;4.95;3.85;;;;;;;;;;5093011;28;20382;-69
2022/09/05 03:14:27;;;;;;;6.28;4.30;;;;;;;;;;5074787;28;20089;-69
2022/09/05 03:17:08;;;;;;;7.30;4.80;;;;;;;;;;5102414;28;20509;-69
2022/09/05 03:19:53;;;;;;;5.75;4.57;;;;;;;;;;5108163;28;20046;-69
2022/09/05 03:22:35;;;;;;;5.93;4.38;;;;;;;;;;5109201;28;20066;-69
2022/09/05 03:25:21;;;;;;;5.68;4.85;;;;;;;;;;5107948;28;20028;-69
2022/09/05 03:27:50;;;;;;;6.97;5.00;;;;;;;;;;5058467;28;20062;-69
2022/09/05 03:30:21;;;;;;;6.53;4.80;;;;;;;;;;5110790;28;20662;-69
2022/09/05 03:33:05;;;;;;;5.50;4.82;;;;;;;;;;5085741;28;20052;-69
2022/09/05 03:35:49;;;;;;;7.10;5.72;;;;;;;;;;5104539;28;20084;-69
2022/09/05 03:38:46;;;;;;;5.65;4.50;;;;;;;;;;5093297;28;20042;-69
2022/09/05 03:41:12;;;;;;;6.32;5.10;;;;;;;;;;5110728;28;20039;-69
2022/09/05 03:43:38;;;;;;;7.40;5.32;;;;;;;;;;5108495;28;20031;-69
2022/09/05 03:46:24;;;;;;;6.28;5.13;;;;;;;;;;5067860;28;20046;-69
2022/09/05 03:49:08;;;;;;;7.97;4.80;;;;;;;;;;5104735;28;20051;-69
2022/09/05 03:51:34;;;;;;;7.05;4.60;;;;;;;;;;5102823;28;20414;-70
2022/09/05 03:54:19;;;;;;;6.38;5.00;;;;;;;;;;5109878;28;20032;-69
2022/09/05 03:57:06;;;;;;;7.20;5.55;;;;;;;;;;5105228;28;20047;-69
2022/09/05 03:59:43;;;;;;;6.55;4.50;;;;;;;;;;5086724;28;20397;-69
2022/09/05 04:02:10;;;;;;;6.60;4.68;;;;;;;;;;5086941;28;20524;-69
2022/09/05 04:04:42;;;;;;;7.93;5.30;;;;;;;;;;5109013;28;20130;-68
2022/09/05 04:07:11;;;;;;;6.10;4.97;;;;;;;;;;5110714;28;20032;-69
2022/09/05 04:09:49;;;;;;;8.05;6.25;;;;;;;;;;5104485;28;20036;-69
2022/09/05 04:12:22;;;;;;;10.07;5.45;;;;;;;;;;5083159;28;20470;-69
2022/09/05 04:14:57;;;;;;;8.55;5.35;;;;;;;;;;5088991;28;20089;-69
2022/09/05 04:17:31;;;;;;;9.30;5.45;;;;;;;;;;5108731;28;20838;-69
2022/09/05 04:20:04;;;;;;;5.65;4.72;;;;;;;;;;5083671;28;20050;-69
2022/09/05 04:22:42;;;;;;;9.52;4.93;;;;;;;;;;5104838;28;20053;-69
2022/09/05 04:25:15;;;;;;;6.50;5.10;;;;;;;;;;5102367;28;20080;-69
2022/09/05 04:27:48;;;;;;;7.72;5.00;;;;;;;;;;5100584;28;20071;-69
2022/09/05 04:30:14;;;;;;;;;;;;;;;;;;5103625;28;20040;-69
2022/09/05 04:32:58;;;;;;;10.38;4.80;;;;;;;;;;5052972;28;19916;-69
2022/09/05 04:35:43;;;;;;;6.85;5.40;;;;;;;;;;5105877;28;20081;-69
2022/09/05 04:38:14;;;;;;;7.55;5.38;;;;;;;;;;5104013;28;20695;-69
2022/09/05 04:40:42;;;;;;;7.22;5.38;;;;;;;;;;5104064;28;20041;-69
2022/09/05 04:43:11;;;;;;;7.90;5.20;;;;;;;;;;5105346;28;20031;-69
2022/09/05 04:45:47;;;;;;;7.40;6.03;;;;;;;;;;5089198;28;20070;-69
2022/09/05 04:48:17;;;;;;;5.70;5.05;;;;;;;;;;5095846;28;20115;-69
2022/09/05 04:50:58;;;;;;;6.22;5.35;;;;;;;;;;5085828;28;20031;-69
2022/09/05 04:53:43;;;;;;;7.15;6.20;;;;;;;;;;5086722;28;20093;-69
2022/09/05 04:56:12;;;;;;;6.10;5.50;;;;;;;;;;5096848;28;20039;-68
2022/09/05 04:58:41;;;;;;;7.70;5.97;;;;;;;;;;5089562;28;20398;-69
2022/09/05 05:01:14;;;;;;;6.95;5.22;;;;;;;;;;5100501;28;20036;-69
2022/09/05 05:03:41;;;;;;;6.43;4.97;;;;;;;;;;5102624;28;20448;-69
2022/09/05 05:06:07;;;;;;;7.15;5.68;;;;;;;;;;5104006;28;20065;-69
2022/09/05 05:08:39;;;;;;;8.05;5.72;;;;;;;;;;5104256;28;20035;-69
2022/09/05 05:11:07;;;;;;;6.82;6.13;;;;;;;;;;5108734;28;20028;-69
2022/09/05 05:13:45;;;;;;;6.60;5.75;;;;;;;;;;5104109;28;20036;-69
2022/09/05 05:16:14;;;;;;;6.70;5.25;;;;;;;;;;5104197;28;20090;-69
2022/09/05 05:18:43;;;;;;;9.55;6.88;;;;;;;;;;5100967;28;20054;-69
2022/09/05 05:21:13;;;;;;;7.00;5.70;;;;;;;;;;5106212;28;20290;-69
2022/09/05 05:23:42;;;;;;;6.15;5.53;;;;;;;;;;5106829;28;20509;-69
2022/09/05 05:26:28;;;;;;;6.03;5.53;;;;;;;;;;5105857;28;20031;-69
2022/09/05 05:28:59;;;;;;;7.30;6.10;;;;;;;;;;5076951;28;20566;-69
2022/09/05 05:31:33;;;;;;;6.43;5.50;;;;;;;;;;5098270;28;20043;-69
2022/09/05 05:34:02;;;;;;;7.13;5.55;;;;;;;;;;5093323;28;20047;-69
2022/09/05 05:36:33;;;;;;;7.95;6.45;;;;;;;;;;5102858;28;20047;-69
2022/09/05 05:39:02;;;;;;;7.88;6.05;;;;;;;;;;5106800;28;20439;-69
2022/09/05 05:41:34;;;;;;;6.90;6.20;;;;;;;;;;5102093;28;20648;-69
2022/09/05 05:44:09;;;;;;;9.60;6.18;;;;;;;;;;5102648;28;20119;-69
2022/09/05 05:46:37;;;;;;;10.23;6.50;;;;;;;;;;5100631;28;20032;-69
2022/09/05 05:49:11;;;;;;;10.02;7.00;;;;;;;;;;5102553;28;20050;-68
2022/09/05 05:51:43;;;;;;;7.18;5.43;;;;;;;;;;5106421;28;20051;-69
2022/09/05 05:54:15;;;;;;;8.25;6.50;;;;;;;;;;5086925;28;20040;-69
2022/09/05 05:56:57;;;;;;;8.38;7.10;;;;;;;;;;5106345;28;20054;-69
2022/09/05 05:59:42;;;;;;;8.02;6.63;;;;;;;;;;5104920;28;20044;-68
2022/09/05 06:02:27;;;;;;;6.80;6.10;;;;;;;;;;5103248;28;20043;-69
2022/09/05 06:05:08;;;;;;;8.90;6.57;;;;;;;;;;5089091;28;20036;-69
2022/09/05 06:07:43;;;;;;;7.65;6.05;;;;;;;;;;5084928;28;20050;-69
2022/09/05 06:10:21;;;;;;;10.23;6.38;;;;;;;;;;5093467;28;20074;-69
2022/09/05 06:13:01;;;;;;;8.50;7.22;;;;;;;;;;5088686;28;20039;-69
2022/09/05 06:15:48;;;;;;;8.00;7.20;;;;;;;;;;5104497;28;20150;-69
2022/09/05 06:18:20;;;;;;;8.40;7.20;;;;;;;;;;5109341;28;20046;-69
2022/09/05 06:20:47;;;;;;;8.27;6.22;;;;;;;;;;5094570;28;20040;-69
2022/09/05 06:23:32;;;;;;;8.13;6.40;;;;;;;;;;5106528;28;20595;-69
2022/09/05 06:26:29;;;;;;;12.52;7.93;;;;;;;;;;5102652;28;20767;-69
2022/09/05 06:28:58;;;;;;;9.07;7.35;;;;;;;;;;5077865;28;20054;-69
2022/09/05 06:31:38;;;;;;;11.45;7.63;;;;;;;;;;5069353;28;20059;-69
2022/09/05 06:34:20;;;;;;;7.63;6.70;;;;;;;;;;5089687;28;20036;-69
2022/09/05 06:36:49;;;;;;;8.02;7.03;;;;;;;;;;5069742;28;20071;-69
2022/09/05 06:39:15;;;;;;;7.10;6.05;;;;;;;;;;5087923;28;20031;-69
2022/09/05 06:41:41;;;;;;;9.00;7.82;;;;;;;;;;5088135;28;20044;-69
2022/09/05 06:44:18;;;;;;;9.05;7.75;;;;;;;;;;5067751;28;20107;-69
2022/09/05 06:46:46;;;;;;;9.43;7.70;;;;;;;;;;5087292;28;20039;-69
2022/09/05 06:49:24;;;;;;;8.75;7.47;;;;;;;;;;5065570;28;20395;-69
2022/09/05 06:52:17;;;;;;;7.43;5.90;;;;;;;;;;5068483;28;20422;-69
2022/09/05 06:54:57;;;;;;;7.70;6.93;;;;;;;;;;5052470;28;20048;-69
2022/09/05 06:57:36;;;;;;;7.68;6.93;;;;;;;;;;5081188;28;20089;-68
2022/09/05 07:00:38;;;;;;;8.50;6.72;;;;;;;;;;5077806;28;20044;-68
2022/09/05 07:03:07;;;;;;;12.93;7.75;;;;;;;;;;4969902;28;20047;-68
2022/09/05 07:05:39;;;;;;;8.00;6.88;;;;;;;;;;5068504;28;20044;-69
2022/09/05 07:08:26;;;;;;;10.37;8.00;;;;;;;;;;5091388;28;20032;-69
2022/09/05 07:11:05;;;;;;;9.85;8.45;;;;;;;;;;5085471;28;20279;-69
2022/09/05 07:13:31;;;;;;;8.68;7.78;;;;;;;;;;5076205;28;20119;-69
2022/09/05 07:16:00;;;;;;;14.43;8.93;;;;;;;;;;5089856;28;20085;-59
2022/09/05 07:18:42;;;;;;;13.00;8.38;;;;;;;;;;5046148;28;20048;-67
2022/09/05 07:21:20;;;;;;;10.65;7.85;;;;;;;;;;5066633;28;20071;-67
2022/09/05 07:23:55;;;;;;;9.40;7.93;;;;;;;;;;5086065;28;20036;-67
2022/09/05 07:26:22;;;;;;;10.95;7.57;;;;;;;;;;5088864;28;20043;-67
2022/09/05 07:28:52;;;;;;;9.25;8.30;;;;;;;;;;5103157;28;20075;-68
2022/09/05 07:31:27;;;;;;;7.63;6.63;;;;;;;;;;5088345;28;20036;-67
2022/09/05 07:34:18;;;;;;;10.65;7.40;;;;;;;;;;5092459;28;20503;-68
2022/09/05 07:36:46;;;;;;;9.93;6.90;;;;;;;;;;5095352;28;20079;-67
2022/09/05 07:39:16;;;;;;;12.25;8.45;;;;;;;;;;5106680;28;20057;-67
2022/09/05 07:41:44;;;;;;;9.45;8.07;;;;;;;;;;5109666;28;20168;-67
2022/09/05 07:44:18;;;;;;;9.80;7.65;;;;;;;;;;5102189;28;20046;-67
2022/09/05 07:46:46;;;;;;;13.35;8.48;;;;;;;;;;5102153;28;20071;-67
2022/09/05 07:49:19;;;;;;;9.88;7.45;;;;;;;;;;5088097;28;20108;-69
2022/09/05 07:51:56;;;;;;;10.10;7.95;;;;;;;;;;5108576;28;20047;-70
2022/09/05 07:54:23;;;;;;;12.90;8.55;;;;;;;;;;5107778;28;20174;-70
2022/09/05 07:56:49;;;;;;;10.80;8.13;;;;;;;;;;5104075;28;20559;-70
2022/09/05 07:59:17;;;;;;;13.45;8.35;;;;;;;;;;5108557;28;20035;-70
2022/09/05 08:01:48;;;;;;;10.40;8.40;;;;;;;;;;5105588;28;20039;-71
2022/09/05 08:04:29;;;;;;;13.68;8.27;;;;;;;;;;5107187;28;20494;-71
2022/09/05 08:07:15;;;;;;;14.15;7.13;;;;;;;;;;5097399;28;20118;-71
2022/09/05 08:10:00;;;;;;;9.73;7.57;;;;;;;;;;5101905;28;20046;-70
2022/09/05 08:12:47;;;;;;;9.10;7.25;;;;;;;;;;5090454;28;20174;-70
2022/09/05 08:15:24;;;;;;;9.30;7.63;;;;;;;;;;5092720;28;20517;-70
2022/09/05 08:17:53;;;;;;;11.75;7.75;;;;;;;;;;5108753;28;20048;-71
2022/09/05 08:20:19;;;;;;;10.38;7.38;;;;;;;;;;5093286;28;20042;-70
2022/09/05 08:22:58;;;;;;;9.48;7.68;;;;;;;;;;5074158;28;20042;-71
2022/09/05 08:25:36;;;;;;;9.98;7.22;;;;;;;;;;5104843;28;20603;-71
2022/09/05 08:28:06;;;;;;;12.02;7.97;;;;;;;;;;5103803;28;20094;-70
2022/09/05 08:30:38;;;;;;;9.10;8.20;;;;;;;;;;5090066;28;20047;-71
2022/09/05 08:33:06;;;;;;;12.20;8.75;;;;;;;;;;5106094;28;20035;-71
2022/09/05 08:35:42;;;;;;;13.13;7.82;;;;;;;;;;5090385;28;20059;-71
2022/09/05 08:38:08;;;;;;;9.20;7.65;;;;;;;;;;5088981;28;20479;-71
2022/09/05 08:40:38;;;;;;;12.20;7.15;;;;;;;;;;5092592;28;20106;-71
2022/09/05 08:43:16;;;;;;;10.52;7.45;;;;;;;;;;5105644;28;20042;-71
2022/09/05 08:45:46;;;;;;;11.32;8.27;;;;;;;;;;5087170;28;20707;-71
2022/09/05 08:48:15;;;;;;;10.32;7.88;;;;;;;;;;5088124;28;20036;-71
2022/09/05 08:51:00;;;;;;;7.97;6.95;;;;;;;;;;5091694;28;20043;-71
2022/09/05 08:53:29;;;;;;;7.47;5.93;;;;;;;;;;5107459;28;20537;-71
2022/09/05 08:56:00;;;;;;;9.32;7.07;;;;;;;;;;5084843;28;20510;-71
2022/09/05 08:58:45;;;;;;;16.48;6.88;;;;;;;;;;5083507;28;20494;-71
2022/09/05 09:01:32;;;;;;;6.50;5.90;;;;;;;;;;5085739;28;20035;-71
2022/09/05 09:04:10;;;;;;;11.10;7.30;;;;;;;;;;5100946;28;20039;-71
2022/09/05 09:06:36;;;;;;;8.52;7.63;;;;;;;;;;5095948;28;20179;-71
2022/09/05 09:09:23;;;;;;;9.90;6.57;;;;;;;;;;5075016;28;20375;-71
2022/09/05 09:12:03;;;;;;;7.95;6.72;;;;;;;;;;5085576;28;20089;-71
2022/09/05 09:14:32;;;;;;;8.00;6.85;;;;;;;;;;5096484;28;20506;-71
2022/09/05 09:17:17;;;;;;;7.00;5.78;;;;;;;;;;5083592;28;20123;-71
2022/09/05 09:19:46;;;;;;;8.60;5.97;;;;;;;;;;5100840;28;20040;-71
2022/09/05 09:22:25;;;;;;;8.75;6.80;;;;;;;;;;5088096;28;20067;-71
2022/09/05 09:24:51;;;;;;;6.30;5.43;;;;;;;;;;5084443;28;20514;-71
2022/09/05 09:27:30;;;;;;;10.88;6.90;;;;;;;;;;5105779;28;20073;-72
2022/09/05 09:30:02;;;;;;;8.20;6.15;;;;;;;;;;5101287;28;20122;-72
2022/09/05 09:32:29;;;;;;;8.60;6.50;;;;;;;;;;5074356;28;20131;-72
2022/09/05 09:34:55;;;;;;;6.97;5.20;;;;;;;;;;5088766;28;20142;-72
2022/09/05 09:37:57;;;;;;;6.05;5.25;;;;;;;;;;5107526;28;20043;-71
2022/09/05 09:40:29;;;;;;;10.52;5.78;;;;;;;;;;5029097;28;20503;-71
2022/09/05 09:43:01;;;;;;;8.35;4.55;;;;;;;;;;5097118;28;20044;-72
2022/09/05 09:45:27;;;;;;;;;;;;;;;;;;5109193;27;20496;-72
2022/09/05 09:48:09;;;;;;;5.72;4.38;;;;;;;;;;5093671;28;20374;-72
2022/09/05 09:50:54;;;;;;;6.13;4.65;;;;;;;;;;5092921;28;20046;-72
2022/09/05 09:53:39;;;;;;;8.32;4.80;;;;;;;;;;5093822;28;20421;-68
2022/09/05 09:56:08;;;;;;;6.90;5.20;;;;;;;;;;5069375;28;20345;-67
2022/09/05 09:58:43;;;;;;;8.77;5.60;;;;;;;;;;5109492;28;20081;-66
2022/09/05 10:01:21;;;;;;;9.77;4.82;;;;;;;;;;5104409;28;20036;-67
2022/09/05 10:04:02;;;;;;;6.47;4.32;;;;;;;;;;5106601;28;20067;-66
2022/09/05 10:06:48;;;;;;;6.40;4.75;;;;;;;;;;5108713;28;20046;-67
2022/09/05 10:09:27;;;;;;;8.38;5.90;;;;;;;;;;5087736;28;20039;-67
2022/09/05 10:11:56;;;;;;;9.52;4.60;;;;;;;;;;5106435;28;20040;-70
2022/09/05 10:14:22;;;;;;;7.75;4.10;;;;;;;;;;5110568;28;20038;-69
2022/09/05 10:16:54;;;;;;;4.82;4.30;;;;;;;;;;5105153;28;20112;-71
2022/09/05 10:19:29;;;;;;;9.93;4.20;;;;;;;;;;5078924;28;20048;-71
2022/09/05 10:22:14;;;;;;;6.82;4.78;;;;;;;;;;5077162;28;20043;-71
2022/09/05 10:24:55;;;;;;;8.45;4.65;;;;;;;;;;5090189;28;20044;-70
2022/09/05 10:27:32;;;;;;;5.70;3.88;;;;;;;;;;5091075;28;20083;-71
2022/09/05 10:30:05;;;;;;;5.47;3.67;;;;;;;;;;5112315;28;20067;-70
2022/09/05 10:32:34;;;;;;;4.30;3.58;;;;;;;;;;5070910;27;20047;-71
2022/09/05 10:35:06;;;;;;;4.20;3.80;;;;;;;;;;5103791;27;20032;-71
2022/09/05 10:37:56;;;;;;;6.85;3.67;;;;;;;;;;5085777;28;20450;-70
2022/09/05 10:40:24;;;;;;;3.67;3.08;;;;;;;;;;5072902;28;20040;-70
2022/09/05 10:42:52;;;;;;;5.40;3.72;;;;;;;;;;5072929;28;20032;-71
2022/09/05 10:45:27;;;;;;;5.97;3.08;;;;;;;;;;5075336;28;20552;-71
2022/09/05 10:47:54;;;;;;;3.05;2.70;;;;;;;;;;5077943;28;20046;-70
2022/09/05 10:50:28;;;;;;;6.70;3.38;;;;;;;;;;5082840;28;20054;-70
2022/09/05 10:53:13;;;;;;;7.47;4.10;;;;;;;;;;5107945;28;20160;-71
2022/09/05 10:55:52;;;;;;;4.10;2.85;;;;;;;;;;5098492;28;20318;-70
2022/09/05 10:58:38;;;;;;;5.90;2.95;;;;;;;;;;5079275;28;20120;-71
2022/09/05 11:01:06;;;;;;;2.95;2.53;;;;;;;;;;5078617;28;20043;-70
2022/09/05 11:03:49;;;;;;;5.60;3.38;;;;;;;;;;5072548;28;20048;-70
2022/09/05 11:06:18;;;;;;;8.18;3.10;;;;;;;;;;5090636;28;20516;-70
2022/09/05 11:09:04;;;;;;;3.33;2.60;;;;;;;;;;5085222;28;20376;-70
2022/09/05 11:11:38;;;;;;;8.43;3.03;;;;;;;;;;5083730;28;20039;-70
2022/09/05 11:14:18;;;;;;;5.85;3.88;;;;;;;;;;5095905;28;20083;-70
2022/09/05 11:16:48;;;;;;;4.53;2.72;;;;;;;;;;5104320;28;20031;-71
2022/09/05 11:19:18;;;;;;;4.18;2.72;;;;;;;;;;5069387;28;20570;-71
2022/09/05 11:21:50;;;;;;;6.00;2.70;;;;;;;;;;5090884;28;20076;-72
2022/09/05 11:24:18;;;;;;;;;;;;;;;;;;5086257;28;20035;-74
2022/09/05 11:26:49;;;;;;;165.25;21.30;;;;;;;;;;5106572;28;19959;-71
2022/09/05 11:29:18;;;;;;;3.70;2.73;;;;;;;;;;5099514;28;20096;-72
2022/09/05 11:31:49;;;;;;;3.75;2.30;;;;;;;;;;5082861;28;20558;-77
2022/09/05 11:34:34;;;;;;;3.58;2.35;;;;;;;;;;5077326;28;20384;-66
2022/09/05 11:37:02;;;;;;;4.22;2.70;;;;;;;;;;5103089;28;20561;-66
2022/09/05 11:39:46;;;;;;;5.45;3.15;;;;;;;;;;5100801;28;20524;-66
2022/09/05 11:42:31;;;;;;;2.70;2.22;;;;;;;;;;5068053;28;21495;-66
2022/09/05 11:45:03;;;;;;;6.07;3.40;;;;;;;;;;5101597;28;20089;-66
2022/09/05 11:48:02;;;;;;;3.78;2.40;;;;;;;;;;5089594;28;20054;-66
2022/09/05 11:50:34;;;;;;;4.25;2.60;;;;;;;;;;5104132;28;20044;-66
2022/09/05 11:53:03;;;;;;;3.70;2.75;;;;;;;;;;5093736;28;20051;-66
2022/09/05 11:55:48;;;;;;;4.45;2.17;;;;;;;;;;5109947;28;20517;-65
2022/09/05 11:58:32;;;;;;;4.78;2.38;;;;;;;;;;5105904;28;20532;-65
2022/09/05 12:01:17;;;;;;;2.58;2.30;;;;;;;;;;5103514;28;20036;-66
2022/09/05 12:04:01;;;;;;;3.42;2.45;;;;;;;;;;5106131;28;20047;-66
2022/09/05 12:06:27;;;;;;;3.85;2.30;;;;;;;;;;5102041;28;20044;-65
2022/09/05 12:08:58;;;;;;;3.30;2.67;;;;;;;;;;5101607;28;20031;-65
2022/09/05 12:11:27;;;;;;;4.82;2.10;;;;;;;;;;5106812;28;20078;-66
2022/09/05 12:14:16;;;;;;;5.35;2.92;;;;;;;;;;5088277;28;20406;-66
2022/09/05 12:16:45;;;;;;;3.88;2.83;;;;;;;;;;5102877;28;20079;-65
2022/09/05 12:19:21;;;;;;;4.97;3.25;;;;;;;;;;5109873;28;20035;-67
2022/09/05 12:22:02;;;;;;;4.32;2.78;;;;;;;;;;5104727;28;20043;-66
2022/09/05 12:24:37;;;;;;;3.33;2.70;;;;;;;;;;5098325;28;20036;-66
2022/09/05 12:27:07;;;;;;;3.10;2.47;;;;;;;;;;5105002;28;20147;-65
2022/09/05 12:29:40;;;;;;;3.90;2.53;;;;;;;;;;5083115;28;20463;-65
2022/09/05 12:32:12;;;;;;;4.03;2.78;;;;;;;;;;5089060;28;20554;-65
2022/09/05 12:34:54;;;;;;;5.07;2.40;;;;;;;;;;5109131;28;20641;-66
2022/09/05 12:37:23;;;;;;;3.42;2.40;;;;;;;;;;5096360;28;20047;-66
2022/09/05 12:39:54;;;;;;;3.42;2.65;;;;;;;;;;5102114;28;20040;-65
2022/09/05 12:42:29;;;;;;;3.20;2.28;;;;;;;;;;5105973;28;20044;-66
2022/09/05 12:45:15;;;;;;;3.65;2.75;;;;;;;;;;5105719;28;20036;-65
2022/09/05 12:47:47;;;;;;;3.58;2.08;;;;;;;;;;5103112;28;20039;-66
2022/09/05 12:50:15;;;;;;;;;;;;;;;;;;5106457;28;20032;-66
2022/09/05 12:52:45;;;;;;;3.25;2.50;;;;;;;;;;5104902;28;19916;-65
2022/09/05 12:55:21;;;;;;;3.55;2.25;;;;;;;;;;5107577;28;20417;-65
2022/09/05 12:57:49;;;;;;;5.00;2.75;;;;;;;;;;5110041;28;20086;-66
2022/09/05 13:00:17;;;;;;;3.97;2.55;;;;;;;;;;5109836;28;20050;-65
2022/09/05 13:02:47;;;;;;;3.10;2.28;;;;;;;;;;5078015;28;20483;-65
2022/09/05 13:05:16;;;;;;;3.35;2.00;;;;;;;;;;5096646;28;20051;-65
2022/09/05 13:07:44;;;;;;;7.82;2.25;;;;;;;;;;5098308;28;20096;-66
2022/09/05 13:10:22;;;;;;;3.10;2.30;;;;;;;;;;5087462;28;20073;-65
2022/09/05 13:12:56;;;;;;;2.53;2.03;;;;;;;;;;5096962;28;20075;-66
2022/09/05 13:15:34;;;;;;;4.70;1.95;;;;;;;;;;5098143;28;20172;-65
2022/09/05 13:18:22;;;;;;;4.40;2.53;;;;;;;;;;5109506;28;20043;-65
2022/09/05 13:21:01;;;;;;;6.65;2.92;;;;;;;;;;5091894;28;20049;-65
2022/09/05 13:23:30;;;;;;;6.07;2.42;;;;;;;;;;5087912;28;20036;-65
2022/09/05 13:26:10;;;;;;;7.18;2.90;;;;;;;;;;5106232;28;20044;-66
2022/09/05 13:28:50;;;;;;;4.97;2.83;;;;;;;;;;5105382;28;20300;-65
2022/09/05 13:31:35;;;;;;;4.82;2.38;;;;;;;;;;5102319;28;20051;-65
2022/09/05 13:34:10;;;;;;;4.82;2.30;;;;;;;;;;5082609;28;20032;-69
2022/09/05 13:36:41;;;;;;;5.25;2.53;;;;;;;;;;5103576;28;20084;-69
2022/09/05 13:39:11;;;;;;;3.25;2.38;;;;;;;;;;5096634;28;20047;-69
2022/09/05 13:41:43;;;;;;;8.82;2.33;;;;;;;;;;5108293;28;20044;-71
2022/09/05 13:44:12;;;;;;;4.82;2.20;;;;;;;;;;5100289;28;20114;-71
2022/09/05 13:46:52;;;;;;;2.95;2.20;;;;;;;;;;5099579;28;20097;-78
2022/09/05 13:49:18;;;;;;;4.03;2.30;;;;;;;;;;5060367;28;20066;-77
2022/09/05 13:51:52;;;;;;;2.60;2.30;;;;;;;;;;5069376;28;20089;-77
2022/09/05 13:54:37;;;;;;;2.80;2.22;;;;;;;;;;5068407;28;20036;-75
2022/09/05 13:57:16;;;;;;;3.67;2.72;;;;;;;;;;5078385;28;20058;-75
2022/09/05 14:00:00;;;;;;;3.15;2.47;;;;;;;;;;5081188;28;20047;-75
2022/09/05 14:02:29;;;;;;;4.20;2.15;;;;;;;;;;5054944;28;20040;-75
2022/09/05 14:04:58;;;;;;;3.40;2.42;;;;;;;;;;5089989;28;20433;-75
2022/09/05 14:07:36;;;;;;;3.97;2.10;;;;;;;;;;5090373;28;20047;-75
2022/09/05 14:10:05;;;;;;;3.20;2.22;;;;;;;;;;5081131;28;20032;-75
2022/09/05 14:12:38;;;;;;;3.75;2.05;;;;;;;;;;5084995;28;20039;-71
2022/09/05 14:15:23;;;;;;;4.15;1.90;;;;;;;;;;5086820;28;20558;-71
2022/09/05 14:17:58;;;;;;;4.60;2.25;;;;;;;;;;5072924;28;20041;-71
2022/09/05 14:23:13;;;;;;;3.80;2.10;;;;;;;;;;5083890;28;20036;-71
2022/09/05 14:25:43;;;;;;;3.78;2.08;;;;;;;;;;5079472;28;20398;-71
2022/09/05 14:28:14;;;;;;;4.60;1.95;;;;;;;;;;5101879;28;20048;-71
2022/09/05 14:30:43;;;;;;;3.58;2.00;;;;;;;;;;5087227;28;20402;-70
2022/09/05 14:33:19;;;;;;;4.72;2.17;;;;;;;;;;5107031;28;20046;-72
2022/09/05 14:36:24;;;;;;;9.38;2.50;;;;;;;;;;5085650;28;20498;-71
2022/09/05 14:39:02;;;;;;;12.90;1.92;;;;;;;;;;5022689;28;20037;-72
2022/09/05 14:41:28;;;;;;;8.35;2.30;;;;;;;;;;5007573;28;20530;-71
2022/09/05 14:43:57;;;;;;;17.70;2.80;;;;;;;;;;5040421;28;20487;-73
2022/09/05 14:46:35;;;;;;;6.22;1.92;;;;;;;;;;5070677;28;20493;-74
2022/09/05 14:49:09;;;;;;;5.72;2.60;;;;;;;;;;5074394;28;20039;-73
2022/09/05 14:51:38;;;;;;;3.60;1.90;;;;;;;;;;5090831;28;20122;-76
2022/09/05 14:54:13;;;;;;;3.67;2.00;;;;;;;;;;5070518;27;20062;-77
2022/09/05 14:56:39;;;;;;;5.13;2.45;;;;;;;;;;5095206;28;20039;-77
2022/09/05 14:59:24;;;;;;;4.43;2.10;;;;;;;;;;5086679;28;20127;-77
2022/09/05 15:01:53;;;;;;;2.72;1.85;;;;;;;;;;5106557;28;20043;-77
2022/09/05 15:04:21;;;;;;;3.08;1.95;;;;;;;;;;5077861;28;20028;-77
2022/09/05 15:07:08;;;;;;;3.30;2.17;;;;;;;;;;5090607;28;20040;-77
2022/09/05 15:09:35;;;;;;;4.32;2.00;;;;;;;;;;5091281;28;20036;-76
2022/09/05 15:12:14;;;;;;;4.13;1.70;;;;;;;;;;5064593;28;20043;-75
2022/09/05 15:14:44;;;;;;;4.78;1.98;;;;;;;;;;5090703;28;20154;-78
2022/09/05 15:17:19;;;;;;;2.55;2.13;;;;;;;;;;5094168;28;20089;-77
2022/09/05 15:19:51;;;;;;;2.30;1.85;;;;;;;;;;5087513;28;20049;-77
2022/09/05 15:22:28;;;;;;;3.65;2.00;;;;;;;;;;5076394;28;20054;-76
2022/09/05 15:25:06;;;;;;;2.90;1.95;;;;;;;;;;5088997;28;20044;-73
2022/09/05 15:27:32;;;;;;;3.88;1.88;;;;;;;;;;5075319;28;20052;-75
2022/09/05 15:30:01;;;;;;;3.20;1.80;;;;;;;;;;5077767;28;20123;-74
2022/09/05 15:32:28;;;;;;;5.18;2.45;;;;;;;;;;5087705;28;20043;-75
2022/09/05 15:34:56;;;;;;;5.93;2.40;;;;;;;;;;5091238;28;20494;-75